sensor_id;sensor_type;location;lat;lon;timestamp;temperature;humidity
59075;DHT22;44860;53.020;6.738;2023-07-08T00:02:13;18.20;92.20
59075;DHT22;44860;53.020;6.738;2023-07-08T00:04:39;18.10;92.50
59075;DHT22;44860;53.020;6.738;2023-07-08T00:07:05;18.10;92.70
59075;DHT22;44860;53.020;6.738;2023-07-08T00:09:34;18.10;92.80
59075;DHT22;44860;53.020;6.738;2023-07-08T00:12:00;18.00;93.00
59075;DHT22;44860;53.020;6.738;2023-07-08T00:14:25;18.00;93.10
59075;DHT22;44860;53.020;6.738;2023-07-08T00:16:51;18.00;93.30
59075;DHT22;44860;53.020;6.738;2023-07-08T00:19:17;17.90;93.50
59075;DHT22;44860;53.020;6.738;2023-07-08T00:21:50;17.90;93.70
59075;DHT22;44860;53.020;6.738;2023-07-08T00:24:17;17.90;94.00
59075;DHT22;44860;53.020;6.738;2023-07-08T00:26:43;17.80;94.20
59075;DHT22;44860;53.020;6.738;2023-07-08T00:29:16;17.80;94.50
59075;DHT22;44860;53.020;6.738;2023-07-08T00:31:42;17.80;94.90
59075;DHT22;44860;53.020;6.738;2023-07-08T00:34:08;17.80;95.20
59075;DHT22;44860;53.020;6.738;2023-07-08T00:36:34;17.70;95.40
59075;DHT22;44860;53.020;6.738;2023-07-08T00:39:00;17.70;95.60
59075;DHT22;44860;53.020;6.738;2023-07-08T00:41:30;17.70;95.80
59075;DHT22;44860;53.020;6.738;2023-07-08T00:43:58;17.60;96.10
59075;DHT22;44860;53.020;6.738;2023-07-08T00:49:14;17.60;96.70
59075;DHT22;44860;53.020;6.738;2023-07-08T00:51:41;17.50;97.00
59075;DHT22;44860;53.020;6.738;2023-07-08T00:54:19;17.50;97.20
59075;DHT22;44860;53.020;6.738;2023-07-08T00:56:51;17.40;97.40
59075;DHT22;44860;53.020;6.738;2023-07-08T00:59:34;17.40;97.50
59075;DHT22;44860;53.020;6.738;2023-07-08T01:02:04;17.40;97.80
59075;DHT22;44860;53.020;6.738;2023-07-08T01:04:34;17.30;98.00
59075;DHT22;44860;53.020;6.738;2023-07-08T01:07:04;17.30;98.20
59075;DHT22;44860;53.020;6.738;2023-07-08T01:09:43;17.20;98.40
59075;DHT22;44860;53.020;6.738;2023-07-08T01:12:16;17.20;98.50
59075;DHT22;44860;53.020;6.738;2023-07-08T01:14:43;17.20;98.60
59075;DHT22;44860;53.020;6.738;2023-07-08T01:17:10;17.20;98.60
59075;DHT22;44860;53.020;6.738;2023-07-08T01:19:39;17.20;98.90
59075;DHT22;44860;53.020;6.738;2023-07-08T01:22:07;17.20;99.10
59075;DHT22;44860;53.020;6.738;2023-07-08T01:24:35;17.20;99.20
59075;DHT22;44860;53.020;6.738;2023-07-08T01:27:03;17.20;99.30
59075;DHT22;44860;53.020;6.738;2023-07-08T01:29:30;17.10;99.40
59075;DHT22;44860;53.020;6.738;2023-07-08T01:31:57;17.10;99.50
59075;DHT22;44860;53.020;6.738;2023-07-08T01:34:23;17.10;99.60
59075;DHT22;44860;53.020;6.738;2023-07-08T01:36:53;17.10;99.70
59075;DHT22;44860;53.020;6.738;2023-07-08T01:39:22;17.00;99.80
59075;DHT22;44860;53.020;6.738;2023-07-08T01:41:48;17.00;99.90
59075;DHT22;44860;53.020;6.738;2023-07-08T01:44:40;17.00;99.90
59075;DHT22;44860;53.020;6.738;2023-07-08T01:47:15;17.00;99.90
59075;DHT22;44860;53.020;6.738;2023-07-08T01:49:43;17.00;99.90
59075;DHT22;44860;53.020;6.738;2023-07-08T01:52:10;16.90;99.90
59075;DHT22;44860;53.020;6.738;2023-07-08T01:54:37;16.90;99.90
59075;DHT22;44860;53.020;6.738;2023-07-08T01:57:03;16.90;99.90
59075;DHT22;44860;53.020;6.738;2023-07-08T01:59:29;16.80;99.90
59075;DHT22;44860;53.020;6.738;2023-07-08T02:01:55;16.80;99.90
59075;DHT22;44860;53.020;6.738;2023-07-08T02:04:21;16.80;99.90
59075;DHT22;44860;53.020;6.738;2023-07-08T02:06:59;16.70;99.90
59075;DHT22;44860;53.020;6.738;2023-07-08T02:09:25;16.80;99.90
59075;DHT22;44860;53.020;6.738;2023-07-08T02:11:52;16.70;99.90
59075;DHT22;44860;53.020;6.738;2023-07-08T02:14:18;16.70;99.90
59075;DHT22;44860;53.020;6.738;2023-07-08T02:16:43;16.70;99.90
59075;DHT22;44860;53.020;6.738;2023-07-08T02:19:10;16.70;99.90
59075;DHT22;44860;53.020;6.738;2023-07-08T02:21:37;16.60;99.90
59075;DHT22;44860;53.020;6.738;2023-07-08T02:24:03;16.60;99.90
59075;DHT22;44860;53.020;6.738;2023-07-08T02:26:28;16.60;99.90
59075;DHT22;44860;53.020;6.738;2023-07-08T02:28:57;16.60;99.90
59075;DHT22;44860;53.020;6.738;2023-07-08T02:31:23;16.50;99.90
59075;DHT22;44860;53.020;6.738;2023-07-08T02:33:53;16.50;99.90
59075;DHT22;44860;53.020;6.738;2023-07-08T02:36:19;16.50;99.90
59075;DHT22;44860;53.020;6.738;2023-07-08T02:38:45;16.40;99.90
59075;DHT22;44860;53.020;6.738;2023-07-08T02:41:11;16.40;99.90
59075;DHT22;44860;53.020;6.738;2023-07-08T02:43:37;16.40;99.90
59075;DHT22;44860;53.020;6.738;2023-07-08T02:46:03;16.40;99.90
59075;DHT22;44860;53.020;6.738;2023-07-08T02:48:29;16.40;99.90
59075;DHT22;44860;53.020;6.738;2023-07-08T02:51:02;16.40;99.90
59075;DHT22;44860;53.020;6.738;2023-07-08T02:53:28;16.30;99.90
59075;DHT22;44860;53.020;6.738;2023-07-08T02:55:54;16.30;99.90
59075;DHT22;44860;53.020;6.738;2023-07-08T02:58:20;16.40;99.90
59075;DHT22;44860;53.020;6.738;2023-07-08T03:00:45;16.30;99.90
59075;DHT22;44860;53.020;6.738;2023-07-08T03:03:11;16.30;99.90
59075;DHT22;44860;53.020;6.738;2023-07-08T03:05:37;16.30;99.90
59075;DHT22;44860;53.020;6.738;2023-07-08T03:08:02;16.30;99.90
59075;DHT22;44860;53.020;6.738;2023-07-08T03:10:28;16.30;99.90
59075;DHT22;44860;53.020;6.738;2023-07-08T03:12:53;16.30;99.90
59075;DHT22;44860;53.020;6.738;2023-07-08T03:15:19;16.20;99.90
59075;DHT22;44860;53.020;6.738;2023-07-08T03:17:45;16.20;99.90
59075;DHT22;44860;53.020;6.738;2023-07-08T03:20:11;16.20;99.90
59075;DHT22;44860;53.020;6.738;2023-07-08T03:22:37;16.20;99.90
59075;DHT22;44860;53.020;6.738;2023-07-08T03:25:03;16.20;99.90
59075;DHT22;44860;53.020;6.738;2023-07-08T03:27:29;16.20;99.90
59075;DHT22;44860;53.020;6.738;2023-07-08T03:29:54;16.20;99.90
59075;DHT22;44860;53.020;6.738;2023-07-08T03:32:20;16.20;99.90
59075;DHT22;44860;53.020;6.738;2023-07-08T03:34:45;16.20;99.90
59075;DHT22;44860;53.020;6.738;2023-07-08T03:37:11;16.20;99.90
59075;DHT22;44860;53.020;6.738;2023-07-08T03:39:37;16.20;99.90
59075;DHT22;44860;53.020;6.738;2023-07-08T03:42:02;16.20;99.90
59075;DHT22;44860;53.020;6.738;2023-07-08T03:44:29;16.20;99.90
59075;DHT22;44860;53.020;6.738;2023-07-08T03:46:56;16.20;99.90
59075;DHT22;44860;53.020;6.738;2023-07-08T03:49:22;16.20;99.90
59075;DHT22;44860;53.020;6.738;2023-07-08T03:51:51;16.20;99.90
59075;DHT22;44860;53.020;6.738;2023-07-08T03:54:18;16.20;99.90
59075;DHT22;44860;53.020;6.738;2023-07-08T03:56:44;16.20;99.90
59075;DHT22;44860;53.020;6.738;2023-07-08T03:59:10;16.20;99.90
59075;DHT22;44860;53.020;6.738;2023-07-08T04:01:36;16.20;99.90
59075;DHT22;44860;53.020;6.738;2023-07-08T04:04:08;16.20;99.90
59075;DHT22;44860;53.020;6.738;2023-07-08T04:06:34;16.20;99.90
59075;DHT22;44860;53.020;6.738;2023-07-08T04:09:00;16.20;99.90
59075;DHT22;44860;53.020;6.738;2023-07-08T04:11:26;16.20;99.90
59075;DHT22;44860;53.020;6.738;2023-07-08T04:13:52;16.20;99.90
59075;DHT22;44860;53.020;6.738;2023-07-08T04:16:24;16.20;99.90
59075;DHT22;44860;53.020;6.738;2023-07-08T04:18:50;16.20;99.90
59075;DHT22;44860;53.020;6.738;2023-07-08T04:21:19;16.20;99.90
59075;DHT22;44860;53.020;6.738;2023-07-08T04:23:45;16.20;99.90
59075;DHT22;44860;53.020;6.738;2023-07-08T04:26:11;16.20;99.90
59075;DHT22;44860;53.020;6.738;2023-07-08T04:28:37;16.30;99.90
59075;DHT22;44860;53.020;6.738;2023-07-08T04:31:02;16.30;99.90
59075;DHT22;44860;53.020;6.738;2023-07-08T04:33:29;16.30;99.90
59075;DHT22;44860;53.020;6.738;2023-07-08T04:35:55;16.30;99.90
59075;DHT22;44860;53.020;6.738;2023-07-08T04:38:24;16.30;99.90
59075;DHT22;44860;53.020;6.738;2023-07-08T04:40:51;16.30;99.90
59075;DHT22;44860;53.020;6.738;2023-07-08T04:43:18;16.30;99.90
59075;DHT22;44860;53.020;6.738;2023-07-08T04:45:46;16.30;99.90
59075;DHT22;44860;53.020;6.738;2023-07-08T04:48:17;16.30;99.90
59075;DHT22;44860;53.020;6.738;2023-07-08T04:50:46;16.40;99.90
59075;DHT22;44860;53.020;6.738;2023-07-08T04:53:12;16.40;99.90
59075;DHT22;44860;53.020;6.738;2023-07-08T04:55:44;16.40;99.90
59075;DHT22;44860;53.020;6.738;2023-07-08T04:58:10;16.40;99.90
59075;DHT22;44860;53.020;6.738;2023-07-08T05:00:36;16.50;99.90
59075;DHT22;44860;53.020;6.738;2023-07-08T05:03:02;16.50;99.90
59075;DHT22;44860;53.020;6.738;2023-07-08T05:05:28;16.50;99.90
59075;DHT22;44860;53.020;6.738;2023-07-08T05:07:54;16.60;99.90
59075;DHT22;44860;53.020;6.738;2023-07-08T05:10:20;16.60;99.90
59075;DHT22;44860;53.020;6.738;2023-07-08T05:12:46;16.50;99.90
59075;DHT22;44860;53.020;6.738;2023-07-08T05:15:13;16.60;99.90
59075;DHT22;44860;53.020;6.738;2023-07-08T05:17:39;16.60;99.90
59075;DHT22;44860;53.020;6.738;2023-07-08T05:20:11;16.70;99.90
59075;DHT22;44860;53.020;6.738;2023-07-08T05:22:38;16.70;99.90
59075;DHT22;44860;53.020;6.738;2023-07-08T05:25:04;16.70;99.90
59075;DHT22;44860;53.020;6.738;2023-07-08T05:27:31;16.80;99.90
59075;DHT22;44860;53.020;6.738;2023-07-08T05:29:59;16.80;99.90
59075;DHT22;44860;53.020;6.738;2023-07-08T05:32:25;16.80;99.90
59075;DHT22;44860;53.020;6.738;2023-07-08T05:34:52;16.90;99.90
59075;DHT22;44860;53.020;6.738;2023-07-08T05:37:18;17.00;99.90
59075;DHT22;44860;53.020;6.738;2023-07-08T05:39:49;17.00;99.90
59075;DHT22;44860;53.020;6.738;2023-07-08T05:42:15;17.10;99.90
59075;DHT22;44860;53.020;6.738;2023-07-08T05:44:40;17.10;99.90
59075;DHT22;44860;53.020;6.738;2023-07-08T05:47:06;17.20;99.90
59075;DHT22;44860;53.020;6.738;2023-07-08T05:49:32;17.30;99.90
59075;DHT22;44860;53.020;6.738;2023-07-08T05:51:58;17.30;99.90
59075;DHT22;44860;53.020;6.738;2023-07-08T05:54:24;17.40;99.90
59075;DHT22;44860;53.020;6.738;2023-07-08T05:56:49;17.40;99.90
59075;DHT22;44860;53.020;6.738;2023-07-08T05:59:15;17.50;99.90
59075;DHT22;44860;53.020;6.738;2023-07-08T06:01:41;17.60;99.90
59075;DHT22;44860;53.020;6.738;2023-07-08T06:04:06;17.60;99.90
59075;DHT22;44860;53.020;6.738;2023-07-08T06:06:32;17.70;99.90
59075;DHT22;44860;53.020;6.738;2023-07-08T06:08:58;17.80;99.90
59075;DHT22;44860;53.020;6.738;2023-07-08T06:11:23;17.90;99.90
59075;DHT22;44860;53.020;6.738;2023-07-08T06:13:49;17.90;99.90
59075;DHT22;44860;53.020;6.738;2023-07-08T06:16:15;18.10;99.90
59075;DHT22;44860;53.020;6.738;2023-07-08T06:18:40;18.10;99.90
59075;DHT22;44860;53.020;6.738;2023-07-08T06:21:06;18.20;99.90
59075;DHT22;44860;53.020;6.738;2023-07-08T06:23:32;18.30;99.90
59075;DHT22;44860;53.020;6.738;2023-07-08T06:25:57;18.40;99.90
59075;DHT22;44860;53.020;6.738;2023-07-08T06:28:23;18.50;99.90
59075;DHT22;44860;53.020;6.738;2023-07-08T06:30:49;18.60;99.90
59075;DHT22;44860;53.020;6.738;2023-07-08T06:33:15;18.60;99.90
59075;DHT22;44860;53.020;6.738;2023-07-08T06:35:41;18.70;99.90
59075;DHT22;44860;53.020;6.738;2023-07-08T06:38:07;18.80;99.90
59075;DHT22;44860;53.020;6.738;2023-07-08T06:40:34;18.90;99.90
59075;DHT22;44860;53.020;6.738;2023-07-08T06:43:00;19.00;99.90
59075;DHT22;44860;53.020;6.738;2023-07-08T06:45:26;19.10;99.90
59075;DHT22;44860;53.020;6.738;2023-07-08T06:47:51;19.20;99.90
59075;DHT22;44860;53.020;6.738;2023-07-08T06:50:17;19.30;99.90
59075;DHT22;44860;53.020;6.738;2023-07-08T06:52:43;19.40;99.90
59075;DHT22;44860;53.020;6.738;2023-07-08T06:55:10;19.50;99.90
59075;DHT22;44860;53.020;6.738;2023-07-08T06:57:36;19.60;99.90
59075;DHT22;44860;53.020;6.738;2023-07-08T07:00:08;19.70;99.90
59075;DHT22;44860;53.020;6.738;2023-07-08T07:02:34;19.80;99.90
59075;DHT22;44860;53.020;6.738;2023-07-08T07:05:00;19.90;99.90
59075;DHT22;44860;53.020;6.738;2023-07-08T07:07:26;20.00;99.90
59075;DHT22;44860;53.020;6.738;2023-07-08T07:09:54;20.00;99.90
59075;DHT22;44860;53.020;6.738;2023-07-08T07:12:19;20.20;99.90
59075;DHT22;44860;53.020;6.738;2023-07-08T07:14:45;20.30;99.90
59075;DHT22;44860;53.020;6.738;2023-07-08T07:17:11;20.40;99.90
59075;DHT22;44860;53.020;6.738;2023-07-08T07:19:36;20.50;99.90
59075;DHT22;44860;53.020;6.738;2023-07-08T07:22:02;20.60;99.90
59075;DHT22;44860;53.020;6.738;2023-07-08T07:24:28;20.70;99.50
59075;DHT22;44860;53.020;6.738;2023-07-08T07:26:54;20.80;98.90
59075;DHT22;44860;53.020;6.738;2023-07-08T07:29:22;20.90;98.40
59075;DHT22;44860;53.020;6.738;2023-07-08T07:31:48;21.00;97.70
59075;DHT22;44860;53.020;6.738;2023-07-08T07:34:14;21.10;97.20
59075;DHT22;44860;53.020;6.738;2023-07-08T07:36:40;21.20;96.20
59075;DHT22;44860;53.020;6.738;2023-07-08T07:39:06;21.30;95.80
59075;DHT22;44860;53.020;6.738;2023-07-08T07:41:31;21.40;95.30
59075;DHT22;44860;53.020;6.738;2023-07-08T07:43:57;21.50;95.30
59075;DHT22;44860;53.020;6.738;2023-07-08T07:46:23;21.60;94.70
59075;DHT22;44860;53.020;6.738;2023-07-08T07:48:49;21.70;94.00
59075;DHT22;44860;53.020;6.738;2023-07-08T07:51:14;21.70;93.20
59075;DHT22;44860;53.020;6.738;2023-07-08T07:53:41;21.80;92.40
59075;DHT22;44860;53.020;6.738;2023-07-08T07:56:07;22.00;91.50
59075;DHT22;44860;53.020;6.738;2023-07-08T07:58:33;22.10;91.10
59075;DHT22;44860;53.020;6.738;2023-07-08T08:00:59;22.10;90.50
59075;DHT22;44860;53.020;6.738;2023-07-08T08:03:25;22.30;90.10
59075;DHT22;44860;53.020;6.738;2023-07-08T08:05:51;22.40;90.20
59075;DHT22;44860;53.020;6.738;2023-07-08T08:08:19;22.50;89.40
59075;DHT22;44860;53.020;6.738;2023-07-08T08:10:45;22.60;88.50
59075;DHT22;44860;53.020;6.738;2023-07-08T08:13:11;22.70;88.30
59075;DHT22;44860;53.020;6.738;2023-07-08T08:15:37;22.80;88.10
59075;DHT22;44860;53.020;6.738;2023-07-08T08:18:03;23.00;88.10
59075;DHT22;44860;53.020;6.738;2023-07-08T08:20:29;23.10;86.80
59075;DHT22;44860;53.020;6.738;2023-07-08T08:22:55;23.20;85.90
59075;DHT22;44860;53.020;6.738;2023-07-08T08:25:23;23.30;83.30
59075;DHT22;44860;53.020;6.738;2023-07-08T08:27:49;23.40;81.40
59075;DHT22;44860;53.020;6.738;2023-07-08T08:30:15;23.50;81.10
59075;DHT22;44860;53.020;6.738;2023-07-08T08:32:41;23.60;81.30
59075;DHT22;44860;53.020;6.738;2023-07-08T08:35:07;23.80;80.80
59075;DHT22;44860;53.020;6.738;2023-07-08T08:37:33;23.90;78.60
59075;DHT22;44860;53.020;6.738;2023-07-08T08:39:58;23.90;79.10
59075;DHT22;44860;53.020;6.738;2023-07-08T08:42:40;24.10;79.20
59075;DHT22;44860;53.020;6.738;2023-07-08T08:45:09;24.20;77.10
59075;DHT22;44860;53.020;6.738;2023-07-08T08:47:42;24.40;75.60
59075;DHT22;44860;53.020;6.738;2023-07-08T08:52:51;24.60;71.00
59075;DHT22;44860;53.020;6.738;2023-07-08T08:55:17;24.70;70.70
59075;DHT22;44860;53.020;6.738;2023-07-08T08:57:50;24.80;69.60
59075;DHT22;44860;53.020;6.738;2023-07-08T09:00:37;24.90;68.40
59075;DHT22;44860;53.020;6.738;2023-07-08T09:03:14;25.00;66.50
59075;DHT22;44860;53.020;6.738;2023-07-08T09:05:45;25.10;66.10
59075;DHT22;44860;53.020;6.738;2023-07-08T09:10:58;25.40;66.00
59075;DHT22;44860;53.020;6.738;2023-07-08T09:13:32;25.60;66.00
59075;DHT22;44860;53.020;6.738;2023-07-08T09:19:00;25.80;62.80
59075;DHT22;44860;53.020;6.738;2023-07-08T09:21:44;25.90;61.80
59075;DHT22;44860;53.020;6.738;2023-07-08T09:24:39;26.00;61.50
59075;DHT22;44860;53.020;6.738;2023-07-08T09:27:06;26.20;59.80
59075;DHT22;44860;53.020;6.738;2023-07-08T09:29:33;26.20;59.50
59075;DHT22;44860;53.020;6.738;2023-07-08T09:32:11;26.30;57.30
59075;DHT22;44860;53.020;6.738;2023-07-08T09:34:50;26.40;57.30
59075;DHT22;44860;53.020;6.738;2023-07-08T09:37:22;26.50;59.00
59075;DHT22;44860;53.020;6.738;2023-07-08T09:39:48;26.70;58.30
59075;DHT22;44860;53.020;6.738;2023-07-08T09:42:15;26.80;55.50
59075;DHT22;44860;53.020;6.738;2023-07-08T09:44:41;26.80;56.30
59075;DHT22;44860;53.020;6.738;2023-07-08T09:47:26;27.00;54.70
59075;DHT22;44860;53.020;6.738;2023-07-08T09:49:59;27.00;52.90
59075;DHT22;44860;53.020;6.738;2023-07-08T09:52:28;27.10;53.60
59075;DHT22;44860;53.020;6.738;2023-07-08T09:54:55;27.20;53.30
59075;DHT22;44860;53.020;6.738;2023-07-08T09:59:54;27.40;51.70
59075;DHT22;44860;53.020;6.738;2023-07-08T10:05:22;27.60;50.30
59075;DHT22;44860;53.020;6.738;2023-07-08T10:07:48;27.70;49.50
59075;DHT22;44860;53.020;6.738;2023-07-08T10:10:25;27.80;49.00
59075;DHT22;44860;53.020;6.738;2023-07-08T10:13:12;27.90;49.50
59075;DHT22;44860;53.020;6.738;2023-07-08T10:15:49;28.00;49.40
59075;DHT22;44860;53.020;6.738;2023-07-08T10:18:24;28.10;48.90
59075;DHT22;44860;53.020;6.738;2023-07-08T10:21:05;28.20;48.20
59075;DHT22;44860;53.020;6.738;2023-07-08T10:26:17;28.40;46.80
59075;DHT22;44860;53.020;6.738;2023-07-08T10:43:03;29.10;45.40
59075;DHT22;44860;53.020;6.738;2023-07-08T10:48:56;29.40;44.40
59075;DHT22;44860;53.020;6.738;2023-07-08T11:05:19;30.10;41.60
59075;DHT22;44860;53.020;6.738;2023-07-08T11:07:55;30.20;41.60
59075;DHT22;44860;53.020;6.738;2023-07-08T11:10:30;30.30;39.70
59075;DHT22;44860;53.020;6.738;2023-07-08T11:13:06;30.40;39.30
59075;DHT22;44860;53.020;6.738;2023-07-08T11:21:32;30.70;37.60
59075;DHT22;44860;53.020;6.738;2023-07-08T11:27:00;30.90;37.60
59075;DHT22;44860;53.020;6.738;2023-07-08T11:29:39;31.00;36.90
59075;DHT22;44860;53.020;6.738;2023-07-08T11:32:11;31.10;36.90
59075;DHT22;44860;53.020;6.738;2023-07-08T11:34:38;31.20;35.60
59075;DHT22;44860;53.020;6.738;2023-07-08T11:37:06;31.20;35.00
59075;DHT22;44860;53.020;6.738;2023-07-08T11:39:38;31.40;35.10
59075;DHT22;44860;53.020;6.738;2023-07-08T11:42:20;31.40;33.60
59075;DHT22;44860;53.020;6.738;2023-07-08T11:44:57;31.50;33.60
59075;DHT22;44860;53.020;6.738;2023-07-08T11:47:41;31.60;33.00
59075;DHT22;44860;53.020;6.738;2023-07-08T11:50:24;31.60;32.90
59075;DHT22;44860;53.020;6.738;2023-07-08T11:53:59;31.70;32.30
59075;DHT22;44860;53.020;6.738;2023-07-08T11:58:28;31.90;29.60
59075;DHT22;44860;53.020;6.738;2023-07-08T12:01:18;31.90;29.20
59075;DHT22;44860;53.020;6.738;2023-07-08T12:03:54;32.00;29.00
59075;DHT22;44860;53.020;6.738;2023-07-08T12:08:58;32.20;27.90
59075;DHT22;44860;53.020;6.738;2023-07-08T12:11:32;32.30;27.00
59075;DHT22;44860;53.020;6.738;2023-07-08T12:14:03;32.40;26.20
59075;DHT22;44860;53.020;6.738;2023-07-08T12:16:31;32.40;26.00
59075;DHT22;44860;53.020;6.738;2023-07-08T12:19:01;32.60;25.60
59075;DHT22;44860;53.020;6.738;2023-07-08T12:21:30;32.60;25.30
59075;DHT22;44860;53.020;6.738;2023-07-08T12:24:04;32.70;24.70
59075;DHT22;44860;53.020;6.738;2023-07-08T12:26:32;32.80;24.80
59075;DHT22;44860;53.020;6.738;2023-07-08T12:28:58;33.00;24.70
59075;DHT22;44860;53.020;6.738;2023-07-08T12:31:24;33.10;24.30
59075;DHT22;44860;53.020;6.738;2023-07-08T12:33:50;33.20;23.80
59075;DHT22;44860;53.020;6.738;2023-07-08T12:36:27;33.30;23.00
59075;DHT22;44860;53.020;6.738;2023-07-08T12:38:56;33.40;22.80
59075;DHT22;44860;53.020;6.738;2023-07-08T12:41:29;33.40;22.50
59075;DHT22;44860;53.020;6.738;2023-07-08T12:43:56;33.50;21.10
59075;DHT22;44860;53.020;6.738;2023-07-08T12:46:23;33.50;21.00
59075;DHT22;44860;53.020;6.738;2023-07-08T12:48:50;33.70;21.20
59075;DHT22;44860;53.020;6.738;2023-07-08T12:51:18;33.80;21.40
59075;DHT22;44860;53.020;6.738;2023-07-08T12:53:46;33.90;21.60
59075;DHT22;44860;53.020;6.738;2023-07-08T12:56:12;34.10;21.40
59075;DHT22;44860;53.020;6.738;2023-07-08T12:58:44;34.20;21.30
59075;DHT22;44860;53.020;6.738;2023-07-08T13:01:25;34.30;20.10
59075;DHT22;44860;53.020;6.738;2023-07-08T13:04:04;34.30;19.10
59075;DHT22;44860;53.020;6.738;2023-07-08T13:06:32;34.40;19.50
59075;DHT22;44860;53.020;6.738;2023-07-08T13:09:24;34.40;18.90
59075;DHT22;44860;53.020;6.738;2023-07-08T13:11:55;34.50;19.30
59075;DHT22;44860;53.020;6.738;2023-07-08T13:14:22;34.50;18.80
59075;DHT22;44860;53.020;6.738;2023-07-08T13:16:49;34.60;18.20
59075;DHT22;44860;53.020;6.738;2023-07-08T13:19:15;34.70;18.50
59075;DHT22;44860;53.020;6.738;2023-07-08T13:21:41;34.80;17.90
59075;DHT22;44860;53.020;6.738;2023-07-08T13:24:10;34.80;18.00
59075;DHT22;44860;53.020;6.738;2023-07-08T13:26:36;34.90;17.50
59075;DHT22;44860;53.020;6.738;2023-07-08T13:29:20;34.90;17.40
59075;DHT22;44860;53.020;6.738;2023-07-08T13:31:52;35.00;17.40
59075;DHT22;44860;53.020;6.738;2023-07-08T13:34:19;35.10;17.00
59075;DHT22;44860;53.020;6.738;2023-07-08T13:36:49;35.10;17.30
59075;DHT22;44860;53.020;6.738;2023-07-08T13:39:22;35.20;16.90
59075;DHT22;44860;53.020;6.738;2023-07-08T13:41:49;35.20;16.60
59075;DHT22;44860;53.020;6.738;2023-07-08T13:44:15;35.30;16.20
59075;DHT22;44860;53.020;6.738;2023-07-08T13:49:26;35.30;16.90
59075;DHT22;44860;53.020;6.738;2023-07-08T13:52:22;35.30;16.50
59075;DHT22;44860;53.020;6.738;2023-07-08T13:54:54;35.40;16.10
59075;DHT22;44860;53.020;6.738;2023-07-08T13:57:38;35.40;16.20
59075;DHT22;44860;53.020;6.738;2023-07-08T14:00:05;35.50;16.50
59075;DHT22;44860;53.020;6.738;2023-07-08T14:02:34;35.50;15.80
59075;DHT22;44860;53.020;6.738;2023-07-08T14:05:00;35.50;15.90
59075;DHT22;44860;53.020;6.738;2023-07-08T14:07:29;35.50;16.00
59075;DHT22;44860;53.020;6.738;2023-07-08T14:09:55;35.60;15.90
59075;DHT22;44860;53.020;6.738;2023-07-08T14:12:22;35.70;15.50
59075;DHT22;44860;53.020;6.738;2023-07-08T14:14:48;35.60;15.30
59075;DHT22;44860;53.020;6.738;2023-07-08T14:17:20;35.70;15.40
59075;DHT22;44860;53.020;6.738;2023-07-08T14:19:46;35.70;15.80
59075;DHT22;44860;53.020;6.738;2023-07-08T14:24:39;35.80;15.90
59075;DHT22;44860;53.020;6.738;2023-07-08T14:27:06;35.90;15.20
59075;DHT22;44860;53.020;6.738;2023-07-08T14:29:35;35.90;14.80
59075;DHT22;44860;53.020;6.738;2023-07-08T14:32:01;35.90;14.70
59075;DHT22;44860;53.020;6.738;2023-07-08T14:34:27;36.00;14.50
59075;DHT22;44860;53.020;6.738;2023-07-08T14:36:53;35.90;14.20
59075;DHT22;44860;53.020;6.738;2023-07-08T14:39:19;35.90;14.30
59075;DHT22;44860;53.020;6.738;2023-07-08T14:41:47;35.90;14.70
59075;DHT22;44860;53.020;6.738;2023-07-08T14:44:24;35.90;13.60
59075;DHT22;44860;53.020;6.738;2023-07-08T14:46:51;35.90;13.90
59075;DHT22;44860;53.020;6.738;2023-07-08T14:49:20;35.90;13.80
59075;DHT22;44860;53.020;6.738;2023-07-08T14:51:46;35.90;13.30
59075;DHT22;44860;53.020;6.738;2023-07-08T14:54:12;36.00;13.20
59075;DHT22;44860;53.020;6.738;2023-07-08T14:56:39;36.00;13.10
59075;DHT22;44860;53.020;6.738;2023-07-08T14:59:05;36.00;13.30
59075;DHT22;44860;53.020;6.738;2023-07-08T15:01:32;36.00;13.30
59075;DHT22;44860;53.020;6.738;2023-07-08T15:03:57;36.10;13.40
59075;DHT22;44860;53.020;6.738;2023-07-08T15:06:24;36.10;13.40
59075;DHT22;44860;53.020;6.738;2023-07-08T15:08:50;36.10;13.50
59075;DHT22;44860;53.020;6.738;2023-07-08T15:11:17;36.10;13.10
59075;DHT22;44860;53.020;6.738;2023-07-08T15:13:43;36.10;13.20
59075;DHT22;44860;53.020;6.738;2023-07-08T15:16:15;36.10;13.20
59075;DHT22;44860;53.020;6.738;2023-07-08T15:18:42;36.10;12.80
59075;DHT22;44860;53.020;6.738;2023-07-08T15:21:12;36.10;12.60
59075;DHT22;44860;53.020;6.738;2023-07-08T15:23:38;36.10;12.60
59075;DHT22;44860;53.020;6.738;2023-07-08T15:26:04;36.10;13.10
59075;DHT22;44860;53.020;6.738;2023-07-08T15:31:02;36.10;13.80
59075;DHT22;44860;53.020;6.738;2023-07-08T15:33:28;36.10;13.80
59075;DHT22;44860;53.020;6.738;2023-07-08T15:35:54;36.10;13.40
59075;DHT22;44860;53.020;6.738;2023-07-08T15:38:19;36.10;13.60
59075;DHT22;44860;53.020;6.738;2023-07-08T15:40:45;36.10;12.50
59075;DHT22;44860;53.020;6.738;2023-07-08T15:43:14;36.10;12.10
59075;DHT22;44860;53.020;6.738;2023-07-08T15:45:41;36.10;12.30
59075;DHT22;44860;53.020;6.738;2023-07-08T15:48:14;36.10;12.30
59075;DHT22;44860;53.020;6.738;2023-07-08T15:50:41;36.10;12.00
59075;DHT22;44860;53.020;6.738;2023-07-08T15:53:07;36.10;11.70
59075;DHT22;44860;53.020;6.738;2023-07-08T15:55:43;36.00;11.90
59075;DHT22;44860;53.020;6.738;2023-07-08T15:58:22;36.00;11.80
59075;DHT22;44860;53.020;6.738;2023-07-08T16:00:49;36.10;11.90
59075;DHT22;44860;53.020;6.738;2023-07-08T16:03:27;36.00;12.40
59075;DHT22;44860;53.020;6.738;2023-07-08T16:05:54;36.10;12.30
59075;DHT22;44860;53.020;6.738;2023-07-08T16:08:21;36.00;12.00
59075;DHT22;44860;53.020;6.738;2023-07-08T16:10:58;36.00;12.10
59075;DHT22;44860;53.020;6.738;2023-07-08T16:13:31;36.00;12.30
59075;DHT22;44860;53.020;6.738;2023-07-08T16:15:57;36.00;12.10
59075;DHT22;44860;53.020;6.738;2023-07-08T16:18:23;36.00;12.10
59075;DHT22;44860;53.020;6.738;2023-07-08T16:20:50;36.00;12.10
59075;DHT22;44860;53.020;6.738;2023-07-08T16:23:16;36.00;12.30
59075;DHT22;44860;53.020;6.738;2023-07-08T16:25:44;36.00;12.10
59075;DHT22;44860;53.020;6.738;2023-07-08T16:31:16;35.90;12.10
59075;DHT22;44860;53.020;6.738;2023-07-08T16:33:42;35.90;12.00
59075;DHT22;44860;53.020;6.738;2023-07-08T16:36:18;35.80;11.80
59075;DHT22;44860;53.020;6.738;2023-07-08T16:38:44;35.80;12.00
59075;DHT22;44860;53.020;6.738;2023-07-08T16:41:20;35.80;11.70
59075;DHT22;44860;53.020;6.738;2023-07-08T16:43:47;35.70;12.30
59075;DHT22;44860;53.020;6.738;2023-07-08T16:46:16;35.50;12.50
59075;DHT22;44860;53.020;6.738;2023-07-08T16:48:41;35.40;12.50
59075;DHT22;44860;53.020;6.738;2023-07-08T16:51:29;35.20;12.70
59075;DHT22;44860;53.020;6.738;2023-07-08T16:54:12;35.10;12.90
59075;DHT22;44860;53.020;6.738;2023-07-08T16:56:38;35.00;13.40